createdAt,value
2017-11-09T00:01:56.508Z,8.55
2017-11-09T00:04:36.552Z,8.65
2017-11-09T00:07:11.110Z,8.64
2017-11-09T00:09:45.847Z,8.57
2017-11-09T00:12:21.345Z,8.57
2017-11-09T00:14:55.508Z,8.66
2017-11-09T00:17:30.008Z,8.85
2017-11-09T00:20:08.454Z,8.65
2017-11-09T00:22:42.984Z,8.77
2017-11-09T00:25:17.528Z,8.61
2017-11-09T00:27:52.767Z,8.69
2017-11-09T00:30:27.212Z,8.75
2017-11-09T00:33:01.612Z,8.82
2017-11-09T00:35:36.105Z,8.58
2017-11-09T00:38:10.540Z,8.81
2017-11-09T00:40:44.930Z,8.81
2017-11-09T00:43:19.962Z,8.91
2017-11-09T00:45:54.532Z,8.77
2017-11-09T00:48:29.083Z,8.79
2017-11-09T00:51:03.522Z,8.71
2017-11-09T00:53:38.008Z,8.56
2017-11-09T00:56:12.632Z,8.56
2017-11-09T00:58:47.235Z,8.54
2017-11-09T01:01:22.195Z,8.55
2017-11-09T01:03:56.748Z,8.58
2017-11-09T01:06:31.188Z,8.53
2017-11-09T01:09:05.139Z,8.45
2017-11-09T01:11:39.206Z,8.46
2017-11-09T01:14:13.831Z,8.47
2017-11-09T01:16:48.379Z,8.29
2017-11-09T01:19:22.791Z,8.21
2017-11-09T01:21:57.383Z,8.20
2017-11-09T01:24:32.020Z,8.26
2017-11-09T01:27:06.471Z,8.30
2017-11-09T01:29:41.011Z,8.33
2017-11-09T01:32:15.480Z,8.35
2017-11-09T01:34:50.075Z,8.44
2017-11-09T01:37:24.545Z,8.42
2017-11-09T01:39:59.084Z,8.46
2017-11-09T01:42:33.599Z,8.48
2017-11-09T01:45:08.073Z,8.89
2017-11-09T01:47:42.837Z,8.58
2017-11-09T01:50:17.299Z,8.40
2017-11-09T01:52:51.769Z,8.31
2017-11-09T01:55:26.643Z,8.73
2017-11-09T01:58:01.583Z,8.87
2017-11-09T02:00:35.470Z,8.77
2017-11-09T02:03:10.608Z,8.73
2017-11-09T02:05:45.088Z,8.48
2017-11-09T02:08:19.800Z,8.63
2017-11-09T02:10:54.172Z,8.55
2017-11-09T02:13:28.812Z,8.30
2017-11-09T02:16:03.815Z,8.24
2017-11-09T02:18:38.231Z,8.15
2017-11-09T02:21:12.474Z,8.12
2017-11-09T02:23:46.655Z,8.21
2017-11-09T02:26:21.856Z,8.29
2017-11-09T02:28:55.983Z,8.30
2017-11-09T02:31:30.136Z,8.31
2017-11-09T02:34:04.288Z,8.21
2017-11-09T02:36:38.687Z,8.27
2017-11-09T02:39:13.356Z,8.29
2017-11-09T02:41:47.879Z,8.38
2017-11-09T02:44:22.298Z,8.23
2017-11-09T02:46:56.795Z,8.44
2017-11-09T02:49:31.288Z,8.48
2017-11-09T02:52:05.900Z,8.31
2017-11-09T02:54:40.513Z,8.18
2017-11-09T02:57:14.623Z,8.13
2017-11-09T02:59:49.476Z,8.09
2017-11-09T03:02:26.120Z,8.03
2017-11-09T03:05:00.828Z,7.85
2017-11-09T03:07:35.339Z,7.83
2017-11-09T03:10:09.525Z,7.98
2017-11-09T03:12:44.245Z,7.98
2017-11-09T03:15:18.727Z,8.18
2017-11-09T03:17:53.198Z,8.02
2017-11-09T03:20:28.726Z,8.34
2017-11-09T03:23:03.069Z,8.40
2017-11-09T03:25:37.652Z,8.34
2017-11-09T03:28:12.112Z,8.28
2017-11-09T03:30:46.621Z,8.18
2017-11-09T03:33:21.092Z,8.16
2017-11-09T03:35:55.528Z,8.19
2017-11-09T03:38:30.084Z,8.07
2017-11-09T03:41:04.588Z,8.09
2017-11-09T03:43:39.193Z,7.94
2017-11-09T03:46:13.488Z,7.89
2017-11-09T03:48:47.903Z,8.02
2017-11-09T03:51:22.289Z,8.25
2017-11-09T03:53:56.717Z,8.16
2017-11-09T03:56:31.325Z,8.02
2017-11-09T03:59:05.772Z,8.01
2017-11-09T04:01:40.056Z,8.12
2017-11-09T04:04:14.650Z,8.31
2017-11-09T04:06:49.275Z,8.52
2017-11-09T04:09:23.812Z,8.47
2017-11-09T04:11:58.278Z,8.37
2017-11-09T04:14:32.925Z,8.33
2017-11-09T04:17:07.467Z,8.13
2017-11-09T04:19:41.908Z,8.01
2017-11-09T04:22:16.523Z,8.11
2017-11-09T04:24:52.383Z,8.33
2017-11-09T04:27:27.026Z,8.26
2017-11-09T04:30:01.433Z,8.27
2017-11-09T04:32:35.991Z,8.27
2017-11-09T04:35:10.835Z,8.23
2017-11-09T04:37:45.212Z,8.31
2017-11-09T04:40:19.536Z,8.37
2017-11-09T04:42:54.093Z,8.07
2017-11-09T04:45:28.644Z,8.24
2017-11-09T04:48:03.265Z,8.23
2017-11-09T04:50:37.712Z,8.19
2017-11-09T04:53:12.779Z,8.10
2017-11-09T04:55:47.420Z,8.10
2017-11-09T04:58:21.967Z,8.04
2017-11-09T05:00:56.364Z,7.98
2017-11-09T05:03:30.799Z,7.85
2017-11-09T05:06:05.563Z,7.73
2017-11-09T05:08:40.180Z,7.62
2017-11-09T05:11:14.671Z,7.54
2017-11-09T05:13:49.268Z,7.54
2017-11-09T05:16:23.731Z,7.47
2017-11-09T05:18:58.157Z,7.43
2017-11-09T05:21:32.628Z,7.30
2017-11-09T05:24:07.012Z,7.46
2017-11-09T05:26:41.510Z,7.59
2017-11-09T05:29:16.047Z,7.34
2017-11-09T05:31:50.552Z,7.46
2017-11-09T05:34:26.572Z,7.57
2017-11-09T05:37:01.716Z,7.42
2017-11-09T05:39:36.450Z,7.47
2017-11-09T05:42:10.881Z,7.58
2017-11-09T05:44:45.384Z,7.66
2017-11-09T05:47:19.826Z,7.88
2017-11-09T05:49:54.494Z,7.76
2017-11-09T05:52:28.924Z,7.69
2017-11-09T05:55:04.889Z,7.56
2017-11-09T05:57:41.752Z,7.77
2017-11-09T06:00:16.031Z,7.78
2017-11-09T06:02:51.095Z,7.82
2017-11-09T06:05:34.297Z,7.54
2017-11-09T06:08:18.639Z,7.49
2017-11-09T06:10:53.217Z,7.64
2017-11-09T06:13:27.765Z,7.60
2017-11-09T06:16:03.741Z,7.67
2017-11-09T06:18:38.326Z,7.68
2017-11-09T06:21:13.423Z,7.71
2017-11-09T06:23:47.983Z,7.60
2017-11-09T06:26:22.623Z,7.52
2017-11-09T06:28:57.103Z,7.35
2017-11-09T06:31:31.487Z,7.43
2017-11-09T06:34:06.027Z,7.54
2017-11-09T06:36:40.500Z,7.49
2017-11-09T06:39:14.804Z,7.81
2017-11-09T06:41:49.207Z,7.84
2017-11-09T06:44:23.697Z,7.67
2017-11-09T06:46:58.296Z,7.56
2017-11-09T06:49:33.052Z,7.54
2017-11-09T06:52:07.534Z,7.45
2017-11-09T06:54:42.139Z,7.58
2017-11-09T06:57:16.520Z,7.75
2017-11-09T06:59:51.003Z,7.60
2017-11-09T07:02:26.184Z,7.91
2017-11-09T07:05:00.705Z,7.88
2017-11-09T07:07:35.102Z,7.98
2017-11-09T07:10:14.199Z,7.95
2017-11-09T07:12:48.619Z,7.84
2017-11-09T07:15:24.313Z,7.96
2017-11-09T07:17:58.875Z,8.01
2017-11-09T07:20:33.291Z,8.13
2017-11-09T07:23:07.673Z,8.42
2017-11-09T07:25:42.106Z,8.53
2017-11-09T07:28:16.712Z,8.55
2017-11-09T07:30:51.244Z,8.44
2017-11-09T07:33:25.678Z,8.52
2017-11-09T07:36:00.115Z,8.49
2017-11-09T07:38:34.996Z,8.39
2017-11-09T07:41:09.871Z,8.39
2017-11-09T07:43:44.566Z,8.40
2017-11-09T07:46:19.059Z,8.29
2017-11-09T07:48:53.496Z,8.33
2017-11-09T07:51:27.973Z,8.42
2017-11-09T07:54:02.752Z,8.48
2017-11-09T07:56:37.293Z,8.69
2017-11-09T07:59:11.731Z,8.72
2017-11-09T08:01:46.227Z,8.85
2017-11-09T08:04:20.896Z,8.73
2017-11-09T08:06:55.282Z,8.60
2017-11-09T08:09:30.177Z,8.75
2017-11-09T08:12:04.880Z,8.73
2017-11-09T08:14:39.616Z,8.79
2017-11-09T08:17:14.051Z,8.70
2017-11-09T08:19:48.541Z,8.87
2017-11-09T08:22:23.460Z,9.02
2017-11-09T08:24:59.972Z,9.18
2017-11-09T08:27:36.608Z,9.37
2017-11-09T08:30:13.027Z,9.33
2017-11-09T08:32:50.847Z,9.50
2017-11-09T08:35:25.372Z,9.39
2017-11-09T08:37:59.609Z,9.50
2017-11-09T08:40:33.993Z,9.62
2017-11-09T08:43:08.560Z,9.55
2017-11-09T08:45:43.200Z,9.64
2017-11-09T08:48:17.700Z,9.50
2017-11-09T08:50:52.139Z,9.61
2017-11-09T08:53:26.653Z,9.83
2017-11-09T08:56:01.153Z,9.74
2017-11-09T08:58:36.220Z,9.67
2017-11-09T09:01:10.836Z,9.62
2017-11-09T09:03:45.443Z,9.72
2017-11-09T09:06:19.947Z,9.88
2017-11-09T09:08:54.519Z,9.92
2017-11-09T09:11:28.952Z,9.99
2017-11-09T09:14:03.500Z,10.27
2017-11-09T09:16:37.884Z,10.20
2017-11-09T09:19:12.314Z,10.06
2017-11-09T09:21:46.653Z,10.11
2017-11-09T09:24:36.596Z,9.88
2017-11-09T09:27:13.723Z,9.59
2017-11-09T09:29:48.054Z,9.55
2017-11-09T09:32:23.227Z,9.74
2017-11-09T09:34:59.495Z,9.52
2017-11-09T09:37:37.131Z,9.64
2017-11-09T09:40:13.437Z,9.66
2017-11-09T09:42:47.847Z,9.67
2017-11-09T09:45:22.292Z,9.66
2017-11-09T09:47:56.802Z,9.70
2017-11-09T09:50:31.105Z,9.76
2017-11-09T09:53:05.716Z,9.88
2017-11-09T09:55:40.099Z,10.09
2017-11-09T09:58:14.699Z,10.04
2017-11-09T10:00:48.902Z,10.11
2017-11-09T10:03:23.523Z,9.98
2017-11-09T10:05:57.653Z,9.61
2017-11-09T10:08:32.188Z,9.94
2017-11-09T10:11:06.659Z,10.01
2017-11-09T10:13:41.284Z,10.15
2017-11-09T10:16:15.676Z,10.03
2017-11-09T10:18:50.315Z,10.05
2017-11-09T10:21:24.763Z,9.99
2017-11-09T10:23:59.355Z,10.06
2017-11-09T10:26:34.236Z,10.12
2017-11-09T10:29:08.974Z,10.13
2017-11-09T10:31:43.569Z,10.10
2017-11-09T10:34:17.999Z,10.18
2017-11-09T10:36:52.469Z,10.26
2017-11-09T10:39:27.055Z,10.25
2017-11-09T10:42:01.516Z,10.38
2017-11-09T10:44:36.128Z,10.44
2017-11-09T10:47:10.912Z,10.38
2017-11-09T10:49:45.150Z,10.54
2017-11-09T10:52:19.559Z,10.58
2017-11-09T10:54:54.752Z,10.59
2017-11-09T10:57:29.456Z,10.33
2017-11-09T11:00:03.544Z,10.44
2017-11-09T11:02:38.087Z,10.58
2017-11-09T11:05:12.728Z,10.55
2017-11-09T11:07:47.298Z,10.36
2017-11-09T11:10:22.058Z,10.62
2017-11-09T11:12:56.602Z,10.55
2017-11-09T11:15:31.457Z,10.59
2017-11-09T11:18:06.050Z,10.74
2017-11-09T11:20:41.771Z,10.86
2017-11-09T11:23:15.862Z,10.93
2017-11-09T11:25:50.482Z,11.12
2017-11-09T11:28:25.110Z,10.85
2017-11-09T11:31:01.159Z,10.45
2017-11-09T11:33:35.833Z,10.23
2017-11-09T11:36:10.718Z,10.25
2017-11-09T11:38:45.284Z,10.36
2017-11-09T11:41:19.720Z,10.52
2017-11-09T11:43:54.320Z,10.60
2017-11-09T11:46:28.701Z,10.66
2017-11-09T11:49:03.349Z,10.57
2017-11-09T11:51:38.191Z,10.63
2017-11-09T11:54:13.677Z,10.43
2017-11-09T11:56:47.980Z,10.47
2017-11-09T11:59:22.393Z,10.47
2017-11-09T12:01:57.263Z,10.49
2017-11-09T12:04:31.859Z,10.45
2017-11-09T12:07:06.409Z,10.51
2017-11-09T12:09:40.971Z,10.52
2017-11-09T12:12:15.453Z,10.60
2017-11-09T12:14:49.971Z,10.81
2017-11-09T12:17:24.621Z,10.64
2017-11-09T12:19:59.303Z,10.60
2017-11-09T12:22:33.737Z,10.55
2017-11-09T12:25:08.500Z,10.56
2017-11-09T12:27:43.143Z,10.47
2017-11-09T12:30:17.656Z,10.50
2017-11-09T12:32:54.392Z,10.48
2017-11-09T12:35:28.896Z,10.51
2017-11-09T12:38:03.440Z,10.47
2017-11-09T12:40:37.868Z,10.45
2017-11-09T12:43:12.217Z,10.49
2017-11-09T12:45:46.199Z,10.68
2017-11-09T12:48:20.570Z,10.60
2017-11-09T12:50:55.061Z,10.54
2017-11-09T12:53:29.696Z,10.45
2017-11-09T12:56:04.259Z,10.43
2017-11-09T12:58:38.674Z,10.49
2017-11-09T13:01:13.092Z,10.30
2017-11-09T13:03:47.692Z,10.46
2017-11-09T13:06:22.864Z,10.59
2017-11-09T13:08:57.507Z,10.66
2017-11-09T13:11:32.036Z,10.69
2017-11-09T13:14:06.480Z,10.57
2017-11-09T13:16:40.704Z,10.62
2017-11-09T13:19:21.234Z,10.63
2017-11-09T13:21:55.753Z,10.71
2017-11-09T13:24:30.089Z,10.74
2017-11-09T13:27:04.292Z,10.68
2017-11-09T13:29:38.991Z,10.67
2017-11-09T13:32:13.394Z,10.73
2017-11-09T13:34:47.911Z,10.75
2017-11-09T13:37:22.408Z,10.61
2017-11-09T13:39:56.961Z,10.58
2017-11-09T13:42:32.132Z,10.58
2017-11-09T13:45:06.612Z,10.64
2017-11-09T13:47:41.632Z,10.58
2017-11-09T13:50:16.275Z,10.57
2017-11-09T13:52:50.738Z,10.67
2017-11-09T13:55:25.708Z,10.63
2017-11-09T13:58:00.211Z,10.59
2017-11-09T14:00:34.767Z,10.57
2017-11-09T14:03:09.308Z,10.50
2017-11-09T14:05:43.472Z,10.46
2017-11-09T14:08:18.088Z,10.53
2017-11-09T14:10:52.554Z,10.58
2017-11-09T14:13:27.115Z,10.52
2017-11-09T14:16:01.533Z,10.57
2017-11-09T14:18:36.134Z,10.56
2017-11-09T14:21:10.530Z,10.52
2017-11-09T14:23:45.080Z,10.50
2017-11-09T14:26:19.528Z,10.47
2017-11-09T14:28:54.084Z,10.54
2017-11-09T14:31:28.971Z,10.49
2017-11-09T14:34:03.595Z,10.55
2017-11-09T14:36:38.181Z,10.62
2017-11-09T14:39:12.748Z,10.69
2017-11-09T14:41:47.141Z,10.77
2017-11-09T14:44:21.559Z,10.73
2017-11-09T14:47:01.504Z,10.78
2017-11-09T14:49:36.488Z,10.72
2017-11-09T14:52:11.116Z,10.59
2017-11-09T14:54:45.639Z,10.54
2017-11-09T14:57:20.083Z,10.56
2017-11-09T14:59:54.804Z,10.51
2017-11-09T15:02:29.230Z,10.54
2017-11-09T15:05:03.830Z,10.50
2017-11-09T15:07:38.290Z,10.55
2017-11-09T15:10:12.888Z,10.64
2017-11-09T15:12:47.328Z,10.68
2017-11-09T15:15:21.731Z,10.66
2017-11-09T15:17:56.995Z,10.66
2017-11-09T15:20:31.727Z,10.60
2017-11-09T15:23:06.200Z,10.74
2017-11-09T15:25:40.503Z,10.79
2017-11-09T15:28:15.025Z,10.83
2017-11-09T15:30:49.750Z,10.92
2017-11-09T15:33:24.063Z,10.95
2017-11-09T15:36:04.038Z,10.89
2017-11-09T15:38:38.849Z,10.95
2017-11-09T15:41:13.369Z,10.90
2017-11-09T15:43:47.951Z,10.83
2017-11-09T15:46:22.487Z,10.92
2017-11-09T15:48:56.910Z,10.94
2017-11-09T15:51:31.429Z,10.85
2017-11-09T15:54:05.811Z,10.86
2017-11-09T15:56:40.288Z,10.89
2017-11-09T15:59:15.460Z,10.79
2017-11-09T16:01:49.967Z,10.87
2017-11-09T16:04:24.533Z,10.93
2017-11-09T16:07:00.907Z,10.96
2017-11-09T16:09:35.520Z,10.92
2017-11-09T16:12:09.959Z,10.74
2017-11-09T16:14:44.606Z,10.63
2017-11-09T16:17:19.167Z,10.50
2017-11-09T16:19:54.208Z,10.44
2017-11-09T16:22:28.612Z,10.28
2017-11-09T16:25:03.229Z,10.46
2017-11-09T16:27:37.635Z,10.44
2017-11-09T16:30:12.309Z,10.45
2017-11-09T16:32:46.897Z,10.32
2017-11-09T16:35:21.427Z,10.28
2017-11-09T16:37:56.056Z,10.27
2017-11-09T16:40:30.471Z,10.28
2017-11-09T16:43:05.082Z,10.32
2017-11-09T16:45:39.609Z,10.39
2017-11-09T16:48:14.210Z,10.33
2017-11-09T16:50:48.613Z,10.30
2017-11-09T16:53:23.258Z,10.27
2017-11-09T16:55:57.837Z,10.29
2017-11-09T16:58:32.341Z,10.30
2017-11-09T17:01:07.556Z,10.29
2017-11-09T17:03:42.312Z,10.29
2017-11-09T17:06:16.732Z,10.30
2017-11-09T17:08:51.750Z,10.19
2017-11-09T17:11:26.475Z,10.21
2017-11-09T17:14:01.027Z,10.19
2017-11-09T17:16:35.551Z,10.19
2017-11-09T17:19:23.080Z,10.17
2017-11-09T17:21:57.603Z,10.26
2017-11-09T17:24:32.155Z,10.34
2017-11-09T17:27:06.617Z,10.46
2017-11-09T17:29:41.268Z,10.36
2017-11-09T17:32:15.833Z,10.34
2017-11-09T17:34:50.299Z,10.39
2017-11-09T17:37:29.662Z,10.43
2017-11-09T17:40:06.087Z,10.48
2017-11-09T17:42:42.302Z,10.49
2017-11-09T17:45:17.072Z,10.55
2017-11-09T17:47:51.607Z,10.50
2017-11-09T17:50:26.095Z,10.58
2017-11-09T17:53:00.644Z,10.56
2017-11-09T17:55:35.163Z,10.54
2017-11-09T17:58:09.775Z,10.59
2017-11-09T18:00:44.187Z,10.49
2017-11-09T18:03:18.716Z,10.63
2017-11-09T18:05:53.547Z,10.52
2017-11-09T18:08:28.008Z,10.36
2017-11-09T18:11:02.452Z,10.32
2017-11-09T18:13:37.830Z,10.36
2017-11-09T18:16:12.277Z,10.37
2017-11-09T18:18:46.804Z,10.34
2017-11-09T18:21:21.288Z,10.36
2017-11-09T18:23:56.734Z,10.38
2017-11-09T18:26:31.436Z,10.27
2017-11-09T18:29:05.999Z,10.07
2017-11-09T18:31:42.272Z,10.03
2017-11-09T18:34:16.853Z,10.02
2017-11-09T18:36:51.086Z,10.14
2017-11-09T18:39:25.540Z,10.09
2017-11-09T18:42:00.095Z,10.08
2017-11-09T18:44:34.472Z,10.13
2017-11-09T18:47:08.985Z,10.19
2017-11-09T18:49:43.294Z,10.25
2017-11-09T18:52:17.816Z,10.31
2017-11-09T18:54:52.339Z,10.33
2017-11-09T18:57:26.876Z,10.39
2017-11-09T19:00:01.517Z,10.23
2017-11-09T19:02:36.002Z,10.25
2017-11-09T19:05:10.380Z,10.10
2017-11-09T19:07:44.848Z,10.21
2017-11-09T19:10:19.324Z,10.28
2017-11-09T19:12:54.271Z,10.31
2017-11-09T19:15:28.764Z,10.29
2017-11-09T19:18:03.374Z,10.22
2017-11-09T19:20:37.775Z,10.27
2017-11-09T19:23:12.295Z,10.26
2017-11-09T19:25:46.699Z,10.19
2017-11-09T19:28:21.194Z,10.11
2017-11-09T19:30:55.881Z,10.10
2017-11-09T19:33:30.828Z,10.08
2017-11-09T19:36:05.346Z,10.09
2017-11-09T19:38:39.980Z,10.12
2017-11-09T19:41:14.591Z,10.10
2017-11-09T19:43:49.033Z,10.25
2017-11-09T19:46:23.554Z,10.24
2017-11-09T19:48:58.080Z,10.28
2017-11-09T19:51:32.604Z,10.27
2017-11-09T19:54:07.387Z,10.24
2017-11-09T19:56:41.819Z,10.24
2017-11-09T19:59:16.261Z,10.32
2017-11-09T20:01:50.655Z,10.34
2017-11-09T20:04:26.027Z,10.31
2017-11-09T20:07:00.441Z,10.35
2017-11-09T20:09:35.044Z,10.40
2017-11-09T20:12:09.587Z,10.36
2017-11-09T20:14:44.104Z,10.40
2017-11-09T20:17:18.568Z,10.31
2017-11-09T20:19:53.039Z,10.25
2017-11-09T20:22:27.999Z,10.33
2017-11-09T20:25:02.422Z,10.29
2017-11-09T20:27:37.104Z,10.51
2017-11-09T20:30:11.528Z,10.39
2017-11-09T20:32:46.259Z,10.23
2017-11-09T20:35:20.720Z,10.19
2017-11-09T20:38:00.395Z,10.17
2017-11-09T20:40:34.718Z,10.16
2017-11-09T20:43:09.356Z,10.15
2017-11-09T20:45:43.607Z,10.19
2017-11-09T20:48:18.188Z,10.20
2017-11-09T20:50:52.732Z,10.18
2017-11-09T20:53:41.752Z,10.25
2017-11-09T20:56:16.188Z,10.38
2017-11-09T20:58:50.732Z,10.33
2017-11-09T21:01:25.262Z,10.32
2017-11-09T21:03:59.800Z,10.38
2017-11-09T21:06:34.668Z,10.39
2017-11-09T21:09:09.530Z,10.42
2017-11-09T21:11:44.117Z,10.39
2017-11-09T21:14:18.643Z,10.32
2017-11-09T21:16:53.477Z,10.31
2017-11-09T21:19:28.091Z,10.40
2017-11-09T21:22:02.493Z,10.33
2017-11-09T21:24:37.035Z,10.46
2017-11-09T21:27:19.896Z,10.43
2017-11-09T21:29:54.636Z,10.34
2017-11-09T21:32:29.325Z,10.37
2017-11-09T21:35:04.165Z,10.52
2017-11-09T21:37:38.631Z,10.41
2017-11-09T21:40:13.362Z,10.32
2017-11-09T21:42:47.947Z,10.41
2017-11-09T21:45:22.374Z,10.52
2017-11-09T21:47:56.979Z,10.45
2017-11-09T21:50:31.483Z,10.37
2017-11-09T21:53:06.011Z,10.35
2017-11-09T21:55:40.505Z,10.36
2017-11-09T21:58:15.107Z,10.32
2017-11-09T22:00:50.128Z,10.29
2017-11-09T22:03:24.567Z,10.41
2017-11-09T22:05:59.219Z,10.53
2017-11-09T22:08:33.753Z,10.50
2017-11-09T22:11:08.367Z,10.64
2017-11-09T22:13:42.891Z,10.61
2017-11-09T22:16:17.531Z,10.42
2017-11-09T22:18:54.424Z,10.31
2017-11-09T22:21:28.872Z,10.23
2017-11-09T22:24:03.456Z,10.32
2017-11-09T22:26:38.601Z,10.26
2017-11-09T22:29:13.199Z,10.10
2017-11-09T22:31:47.709Z,10.16
2017-11-09T22:34:22.253Z,10.14
2017-11-09T22:36:56.521Z,10.06
2017-11-09T22:39:30.949Z,10.15
2017-11-09T22:42:06.035Z,10.26
2017-11-09T22:44:47.157Z,10.23
2017-11-09T22:47:21.571Z,10.13
2017-11-09T22:49:56.047Z,10.15
2017-11-09T22:52:30.547Z,10.17
2017-11-09T22:55:05.376Z,9.50
2017-11-09T22:57:39.903Z,10.29
2017-11-09T23:00:14.355Z,10.30
2017-11-09T23:02:48.905Z,10.26
2017-11-09T23:05:23.391Z,10.12
2017-11-09T23:07:57.866Z,10.14
2017-11-09T23:10:33.032Z,10.07
2017-11-09T23:13:07.320Z,10.02
2017-11-09T23:15:42.131Z,10.03
2017-11-09T23:18:16.673Z,10.03
2017-11-09T23:20:51.599Z,10.02
2017-11-09T23:23:26.159Z,10.04
2017-11-09T23:26:01.380Z,10.02
2017-11-09T23:28:35.770Z,10.06
2017-11-09T23:31:10.667Z,10.10
2017-11-09T23:33:45.335Z,10.08
2017-11-09T23:36:19.768Z,10.01
2017-11-09T23:38:54.310Z,10.04
2017-11-09T23:41:28.801Z,10.06
2017-11-09T23:44:03.331Z,10.11
2017-11-09T23:46:37.809Z,10.16
2017-11-09T23:49:12.273Z,10.04
2017-11-09T23:51:46.701Z,10.14
2017-11-09T23:54:21.248Z,10.26
2017-11-09T23:56:56.095Z,10.22
2017-11-09T23:59:30.547Z,10.16
